Latest Weather Observations for Canberra

IDN60801

Issued at 6:02 am EST Monday 29 May 2017 (issued every 30 minutes, with the page automatically refreshed every 10 minutes)

About weather observations | Map of weather stations | Latest weather observations for NSW | Other Formats
Station Details ID: 070351 Name: CANBERRA AIRPORT Lat: -35.31 Lon: 149.20 Height: 577.05 m
Data from the previous 72 hours. | See also: Recent months at Canberra
Date/Time
EST
Temp
°C
App
Temp
°C
Dew
Point
°C
Rel
Hum
%
Delta-T
°C
Wind Press
QNH
hPa
Press
MSL
hPa
Rain since
9am
mm
Dir  Spd
km/h
Gust
km/h
Spd
kts
Gust
kts
29/06:00am 4.8 -0.4 0.0 71 1.9 NW 17 19 9 10 1015.4 1015.7 -
29/05:30am 5.1 0.3 0.5 72 1.8 W 15 26 8 14 1015.3 1015.5 0.0
29/05:00am 5.3 -0.2 0.5 71 1.9 WNW 19 26 10 14 1014.8 1014.9 0.0
29/04:30am 5.4 -0.3 0.6 71 1.9 WNW 20 33 11 18 1014.4 1014.5 0.0
29/04:00am 5.9 0.9 1.2 72 1.9 WNW 17 26 9 14 1014.1 1014.3 0.0
29/03:30am 6.6 2.1 1.9 72 2.0 W 15 20 8 11 1014.3 1014.4 0.0
29/03:00am 6.5 1.2 2.0 73 1.9 WNW 19 28 10 15 1013.6 1013.8 0.0
29/02:30am 6.9 1.5 2.6 74 1.8 WNW 20 37 11 20 1013.5 1013.6 0.0
29/02:00am 6.7 1.5 2.6 75 1.8 NW 19 28 10 15 1013.2 1013.3 0.0
29/01:30am 6.5 1.1 2.4 75 1.7 NW 20 30 11 16 1012.9 1013.0 0.0
29/01:00am 6.9 1.8 3.0 76 1.7 WNW 19 28 10 15 1012.9 1013.0 0.0
29/12:30am 7.6 3.3 3.3 74 1.9 NW 15 26 8 14 1013.1 1013.2 0.0
29/12:00am 7.7 3.5 3.7 76 1.8 NW 15 26 8 14 1013.2 1013.3 0.0
 
Date/Time
EST
Temp
°C
App
Temp
°C
Dew
Point
°C
Rel
Hum
%
Delta-T
°C
Wind Press
QNH
hPa
Press
MSL
hPa
Rain since
9am
mm
Dir  Spd
km/h
Gust
km/h
Spd
kts
Gust
kts
28/11:30pm 8.0 2.4 3.3 72 2.1 NW 22 30 12 16 1013.2 1013.3 0.0
28/11:00pm 8.4 2.4 3.5 71 2.2 NW 24 33 13 18 1013.2 1013.3 0.0
28/10:30pm 8.3 3.3 3.6 72 2.1 NW 19 33 10 18 1013.2 1013.3 0.0
28/10:00pm 8.2 3.9 3.5 72 2.1 NW 15 20 8 11 1013.3 1013.4 0.0
28/09:30pm 7.2 2.0 2.7 73 1.9 NW 19 26 10 14 1013.2 1013.3 0.0
28/09:00pm 7.7 2.9 2.8 71 2.1 NW 17 24 9 13 1013.0 1013.1 0.0
28/08:30pm 8.0 3.3 3.3 72 2.1 NW 17 20 9 11 1013.1 1013.2 0.0
28/08:00pm 8.8 4.1 3.2 68 2.5 NW 17 24 9 13 1013.1 1013.2 0.0
28/07:30pm 9.3 5.0 3.1 65 2.8 NW 15 20 8 11 1012.7 1012.8 0.0
28/07:00pm 9.3 4.2 3.1 65 2.8 NW 19 28 10 15 1012.2 1012.4 0.0
28/06:30pm 9.3 3.2 2.9 64 2.8 NW 24 35 13 19 1011.6 1011.7 0.0
28/06:00pm 9.7 3.7 3.2 64 2.9 WNW 24 39 13 21 1011.0 1011.1 0.0
28/05:30pm 9.5 4.9 3.5 66 2.7 WNW 17 30 9 16 1010.8 1010.9 0.0
28/05:00pm 10.2 4.7 3.9 65 2.9 WNW 22 30 12 16 1010.1 1010.2 0.0
28/04:30pm 10.8 4.5 4.0 63 3.1 NW 26 41 14 22 1009.6 1009.7 0.0
28/04:02pm 12.1 4.5 3.9 57 3.8 NW 33 52 18 28 1009.3 1009.4 0.0
28/04:00pm 12.0 4.0 3.8 57 3.8 NW 35 50 19 27 1009.3 1009.4 0.0
28/03:30pm 13.0 7.4 5.2 59 3.7 WNW 24 37 13 20 1009.3 1009.4 0.0
28/03:09pm 13.1 6.5 6.2 63 3.4 NW 30 48 16 26 1009.2 1009.3 0.0
28/03:00pm 12.3 5.1 5.9 65 3.1 NW 33 43 18 23 1009.0 1009.0 0.0
28/02:44pm 12.5 4.2 5.9 64 3.2 WNW 39 59 21 32 1009.0 1009.0 0.0
28/02:30pm 13.5 4.4 6.1 61 3.6 NW 43 56 23 30 1009.0 1009.0 0.0
28/02:00pm 13.9 5.3 6.5 61 3.7 NW 41 56 22 30 1008.8 1008.8 0.0
28/01:45pm 13.2 4.6 6.3 63 3.4 NW 41 59 22 32 1009.0 1009.0 0.0
28/01:30pm 12.8 4.9 6.2 64 3.2 NW 37 54 20 29 1009.1 1009.1 0.0
28/01:25pm 13.2 6.3 7.2 67 3.0 NW 33 52 18 28 1009.1 1009.1 0.0
28/01:00pm 12.7 5.4 7.4 70 2.7 NW 35 50 19 27 1009.2 1009.3 0.0
28/12:45pm 12.9 5.7 7.8 71 2.6 NW 35 54 19 29 1009.4 1009.5 0.0
28/12:30pm 13.0 6.2 7.7 70 2.7 NW 33 44 18 24 1009.6 1009.7 0.0
28/12:00pm 12.4 5.7 8.1 75 2.2 NW 33 41 18 22 1009.9 1010.0 0.0
28/11:30am 13.2 6.1 8.1 71 2.6 NNW 35 52 19 28 1010.2 1010.3 0.0
28/11:24am 12.5 5.7 7.6 72 2.5 NNW 33 52 18 28 1010.3 1010.4 0.0
28/11:00am 11.8 6.3 7.5 75 2.2 NNW 26 33 14 18 1010.9 1011.0 0.0
28/10:30am 12.1 6.4 8.4 78 1.9 NW 28 41 15 22 1011.5 1011.6 0.0
28/10:00am 12.6 7.3 8.3 75 2.2 NNW 26 37 14 20 1011.2 1011.3 0.0
28/09:30am 11.3 5.0 7.6 78 1.8 NNW 30 43 16 23 1011.3 1011.4 0.0
28/09:00am 10.7 5.2 7.4 80 1.6 NNW 26 35 14 19 1011.5 1011.6 0.2
28/08:30am 10.2 5.5 7.6 84 1.3 NNW 22 28 12 15 1011.6 1011.7 0.2
28/08:00am 9.2 4.4 7.2 87 1.0 NNW 22 28 12 15 1011.7 1011.8 0.2
28/07:30am 8.5 3.2 6.8 89 0.8 NNW 24 30 13 16 1011.8 1011.9 0.2
28/07:00am 7.9 3.3 6.5 91 0.7 NNW 20 26 11 14 1012.0 1012.1 0.2
28/06:30am 7.9 3.4 6.8 93 0.5 NNW 20 28 11 15 1012.2 1012.4 0.2
28/06:00am 7.6 3.0 6.7 94 0.4 NNW 20 26 11 14 1012.1 1012.3 0.2
28/05:30am 3.8 1.3 3.7 99 0.0 W 6 9 3 5 1012.5 1012.6 0.2
28/05:00am 2.4 0.8 2.3 99 0.0 CALM 0 0 0 0 1012.5 1012.6 0.2
28/04:55am 0.9 -1.3 0.8 99 0.0 NE 2 7 1 4 1012.6 1012.7 0.2
28/04:30am 0.6 -2.6 0.5 99 0.0 S 7 9 4 5 1012.7 1012.8 0.2
28/04:00am 0.5 -1.8 0.4 99 0.0 SSW 2 7 1 4 1012.9 1013.0 0.2
28/03:54am 0.6 -1.3 0.5 99 0.0 CALM 0 0 0 0 1012.9 1013.0 0.2
28/03:42am 0.0 -2.0 -0.1 99 0.0 CALM 0 0 0 0 1013.1 1013.2 0.2
28/03:30am 0.8 -1.1 0.7 99 0.0 CALM 0 0 0 0 1013.2 1013.3 0.2
28/03:00am 0.8 -1.1 0.7 99 0.0 CALM 0 0 0 0 1013.8 1014.0 0.2
28/02:56am 0.7 -1.2 0.6 99 0.0 CALM 0 0 0 0 1013.9 1014.1 0.2
28/02:30am 1.7 0.0 1.6 99 0.0 CALM 0 0 0 0 1014.5 1014.6 0.2
28/02:00am 1.4 -0.4 1.3 99 0.0 CALM 0 0 0 0 1014.9 1015.0 0.2
28/01:40am 1.1 -0.7 1.0 99 0.0 CALM 0 0 0 0 1015.1 1015.3 0.0
28/01:30am 1.0 -0.8 0.9 99 0.0 CALM 0 0 0 0 1015.2 1015.4 0.0
28/01:00am 2.1 0.4 2.0 99 0.0 CALM 0 0 0 0 1015.3 1015.5 0.0
28/12:40am 2.0 0.3 1.9 99 0.0 CALM 0 0 0 0 1015.6 1015.8 0.0
28/12:30am 2.3 0.7 2.2 99 0.0 CALM 0 0 0 0 1015.7 1015.9 0.0
28/12:01am 2.1 0.4 2.0 99 0.0 CALM 0 0 0 0 1015.9 1016.1 0.0
28/12:00am 2.0 0.3 1.9 99 0.0 CALM 0 0 0 0 1015.9 1016.1 0.0
 
Date/Time
EST
Temp
°C
App
Temp
°C
Dew
Point
°C
Rel
Hum
%
Delta-T
°C
Wind Press
QNH
hPa
Press
MSL
hPa
Rain since
9am
mm
Dir  Spd
km/h
Gust
km/h
Spd
kts
Gust
kts
27/11:48pm 2.1 0.4 2.0 99 0.0 CALM 0 0 0 0 1016.0 1016.2 0.0
27/11:36pm 2.8 1.2 2.7 99 0.0 CALM 0 0 0 0 1016.2 1016.3 0.0
27/11:30pm 2.8 1.2 2.7 99 0.0 CALM 0 0 0 0 1016.3 1016.4 0.0
27/11:21pm 3.0 1.5 2.9 99 0.0 CALM 0 0 0 0 1016.4 1016.5 0.0
27/11:00pm 3.2 1.7 3.1 99 0.0 CALM 0 0 0 0 1016.6 1016.8 0.0
27/10:34pm 3.0 1.5 2.9 99 0.0 CALM 0 0 0 0 1016.9 1017.1 0.0
27/10:30pm 3.2 1.7 3.1 99 0.0 CALM 0 0 0 0 1016.9 1017.1 0.0
27/10:00pm 3.7 2.3 3.6 99 0.0 CALM 0 0 0 0 1017.0 1017.2 0.0
27/09:42pm 4.4 3.1 4.3 99 0.0 CALM 0 0 0 0 1017.2 1017.4 0.0
27/09:32pm 4.1 2.8 4.0 99 0.0 CALM 0 0 0 0 1017.2 1017.4 0.0
27/09:30pm 4.1 2.8 4.0 99 0.0 CALM 0 0 0 0 1017.2 1017.4 0.0
27/09:00pm 3.8 2.4 3.7 99 0.0 CALM 0 0 0 0 1017.2 1017.4 0.0
27/08:49pm 4.4 3.1 4.3 99 0.0 CALM 0 0 0 0 1017.3 1017.5 0.0
27/08:30pm 4.9 3.6 4.3 96 0.3 CALM 0 0 0 0 1017.3 1017.5 0.0
27/08:00pm 5.1 3.9 4.5 96 0.3 CALM 0 0 0 0 1017.5 1017.7 0.0
27/07:30pm 5.2 3.9 3.9 91 0.6 CALM 0 0 0 0 1017.6 1017.8 0.0
27/07:00pm 6.6 4.8 5.2 91 0.6 ENE 4 6 2 3 1017.3 1017.5 0.0
27/06:30pm 5.2 2.6 4.0 92 0.5 E 7 9 4 5 1017.4 1017.6 0.0
27/06:00pm 8.8 6.3 6.4 85 1.1 N 9 9 5 5 1017.4 1017.6 0.0
27/05:30pm 10.6 8.1 6.6 76 1.9 NW 9 13 5 7 1017.4 1017.6 0.0
27/05:00pm 11.3 8.5 6.8 74 2.2 WNW 11 15 6 8 1017.3 1017.5 0.0
27/04:30pm 13.2 10.4 7.0 66 3.1 NW 11 15 6 8 1017.4 1017.6 0.0
27/04:00pm 14.7 11.6 7.3 61 3.8 NW 13 17 7 9 1017.5 1017.7 0.0
27/03:30pm 15.2 12.1 7.3 59 4.0 NW 13 17 7 9 1017.5 1017.7 0.0
27/03:00pm 15.2 11.7 7.3 59 4.0 NW 15 19 8 10 1017.7 1017.9 0.0
27/02:30pm 15.4 11.2 7.4 59 4.1 NW 19 28 10 15 1017.8 1018.0 0.0
27/02:00pm 15.4 11.0 7.4 59 4.1 NW 20 30 11 16 1018.1 1018.3 0.0
27/01:30pm 15.0 11.6 7.5 61 3.8 NNW 15 19 8 10 1018.4 1018.6 0.0
27/01:00pm 14.1 10.5 6.7 61 3.7 NNW 15 22 8 12 1018.9 1019.1 0.0
27/12:30pm 13.9 12.1 7.9 67 3.1 SW 7 9 4 5 1019.4 1019.6 0.0
27/12:00pm 13.0 11.3 7.7 70 2.7 S 6 11 3 6 1020.1 1020.3 0.0
27/11:30am 12.6 10.9 7.5 71 2.6 ESE 6 9 3 5 1020.7 1020.9 0.0
27/11:00am 12.4 10.7 7.5 72 2.5 NW 6 9 3 5 1021.2 1021.5 0.0
27/10:30am 11.8 10.9 7.7 76 2.1 SSE 2 7 1 4 1021.7 1021.9 0.0
27/10:28am 11.6 10.6 7.5 76 2.0 SSE 2 7 1 4 1021.7 1021.9 0.0
27/10:00am 10.4 8.8 8.0 85 1.2 S 6 9 3 5 1022.1 1022.3 0.0
27/09:30am 9.3 8.9 8.2 93 0.5 CALM 0 0 0 0 1022.3 1022.5 0.0
27/09:00am 8.4 8.0 8.1 98 0.1 CALM 0 0 0 0 1022.4 1022.6 0.0
27/08:30am 7.7 7.1 7.6 99 0.0 CALM 0 4 0 2 1022.4 1022.6 0.0
27/08:00am 6.3 5.4 6.2 99 0.0 CALM 0 0 0 0 1022.4 1022.6 0.0
27/07:30am 5.3 3.1 5.2 99 0.0 NNE 6 7 3 4 1022.3 1022.5 0.0
27/07:00am 4.6 3.0 4.5 99 0.0 NNE 2 11 1 6 1022.2 1022.4 0.0
27/06:30am 5.5 4.5 5.4 99 0.0 CALM 0 0 0 0 1022.1 1022.3 0.0
27/06:00am 5.3 4.2 5.2 99 0.0 CALM 0 7 0 4 1022.1 1022.3 0.0
27/05:30am 4.5 2.5 4.4 99 0.0 SSW 4 7 2 4 1022.1 1022.3 0.0
27/05:00am 4.2 1.8 4.1 99 0.0 SSW 6 9 3 5 1022.1 1022.3 0.0
27/04:30am 2.9 0.2 2.8 99 0.0 SW 6 7 3 4 1022.0 1022.2 0.0
27/04:22am 2.4 -0.4 2.3 99 0.0 W 6 6 3 3 1022.0 1022.2 0.0
27/04:00am 2.2 -0.6 2.1 99 0.0 ESE 6 7 3 4 1021.9 1022.1 0.0
27/03:42am 1.6 -0.9 1.5 99 0.0 E 4 7 2 4 1022.0 1022.2 0.0
27/03:30am 0.9 -2.1 0.8 99 0.0 NNW 6 9 3 5 1022.0 1022.2 0.0
27/03:00am 3.0 1.5 2.9 99 0.0 CALM 0 4 0 2 1022.2 1022.4 0.0
27/02:30am 4.0 1.5 3.9 99 0.0 ESE 6 7 3 4 1022.5 1022.8 0.0
27/02:00am 3.5 2.1 3.4 99 0.0 CALM 0 0 0 0 1022.5 1022.8 0.0
27/01:54am 3.1 1.6 3.0 99 0.0 CALM 0 0 0 0 1022.6 1022.9 0.0
27/01:30am 4.8 3.2 4.7 99 0.0 N 2 7 1 4 1022.7 1023.0 0.0
27/01:00am 4.8 3.6 4.7 99 0.0 CALM 0 2 0 1 1022.7 1023.0 0.0
27/12:30am 5.0 3.9 4.9 99 0.0 CALM 0 0 0 0 1022.9 1023.2 0.0
27/12:00am 4.6 3.4 4.5 99 0.0 CALM 0 0 0 0 1023.0 1023.3 0.0
 
Date/Time
EST
Temp
°C
App
Temp
°C
Dew
Point
°C
Rel
Hum
%
Delta-T
°C
Wind Press
QNH
hPa
Press
MSL
hPa
Rain since
9am
mm
Dir  Spd
km/h
Gust
km/h
Spd
kts
Gust
kts
26/11:30pm 4.1 2.0 4.0 99 0.0 S 4 7 2 4 1022.9 1023.2 0.0
26/11:09pm 3.9 1.2 3.8 99 0.0 SSW 7 9 4 5 1022.8 1023.1 0.0
26/11:00pm 3.7 1.0 3.6 99 0.0 S 7 9 4 5 1022.8 1023.1 0.0
26/10:51pm 3.3 0.5 3.2 99 0.0 S 7 7 4 4 1022.7 1023.0 0.0
26/10:30pm 4.8 3.2 4.7 99 0.0 ESE 2 6 1 3 1022.7 1023.0 0.0
26/10:00pm 4.1 2.8 4.0 99 0.0 CALM 0 0 0 0 1022.8 1023.1 0.0
26/09:30pm 5.2 4.1 4.9 98 0.1 CALM 0 0 0 0 1022.7 1023.0 0.0
26/09:00pm 5.4 4.3 5.0 97 0.2 CALM 0 0 0 0 1022.7 1023.0 0.0
26/08:30pm 5.6 3.8 5.3 98 0.1 NW 4 9 2 5 1022.5 1022.8 0.0
26/08:00pm 5.3 2.9 5.2 99 0.0 SSW 7 7 4 4 1022.5 1022.8 0.0
26/07:30pm 5.6 3.3 4.9 95 0.3 NNW 6 9 3 5 1022.4 1022.6 0.0
26/07:00pm 7.2 5.0 6.3 94 0.4 NNW 7 7 4 4 1022.0 1022.2 0.0
26/06:30pm 6.4 3.7 5.4 93 0.5 E 9 11 5 6 1021.9 1022.1 0.0
26/06:00pm 8.2 7.3 6.2 87 0.9 CALM 0 0 0 0 1021.5 1021.8 0.0
26/05:30pm 9.7 7.4 5.9 77 1.8 W 7 9 4 5 1021.3 1021.6 0.0
26/05:00pm 12.1 9.8 7.6 74 2.3 W 9 13 5 7 1021.1 1021.4 0.0
26/04:30pm 14.3 11.4 6.4 59 3.9 N 11 15 6 8 1020.9 1021.1 0.0
26/04:00pm 15.2 11.6 5.1 51 4.9 N 13 15 7 8 1020.7 1020.9 0.0
26/03:30pm 15.6 12.4 5.2 50 5.1 WNW 11 15 6 8 1020.8 1021.0 0.0
26/03:00pm 15.7 12.4 4.4 47 5.4 NNW 11 15 6 8 1020.8 1021.0 0.0
26/02:30pm 15.2 13.1 6.0 54 4.6 N 6 9 3 5 1020.8 1021.0 0.0
26/02:00pm 14.1 12.0 6.7 61 3.7 WNW 7 11 4 6 1021.0 1021.3 0.0
26/01:30pm 13.6 11.7 6.7 63 3.4 NW 6 9 3 5 1021.3 1021.6 0.0
26/01:00pm 12.3 10.3 6.1 66 3.0 N 6 9 3 5 1021.8 1022.0 0.0
26/12:30pm 10.7 8.7 6.1 73 2.2 NW 6 9 3 5 1022.2 1022.4 0.0
26/12:00pm 9.2 7.2 6.1 81 1.5 WSW 6 11 3 6 1022.6 1022.9 0.0
26/11:30am 8.1 6.1 6.2 88 0.9 NW 6 7 3 4 1023.1 1023.4 0.0
26/11:00am 6.8 5.2 6.2 96 0.3 NW 4 9 2 5 1023.3 1023.6 0.0
26/10:30am 6.1 4.0 6.0 99 0.0 N 6 9 3 5 1023.6 1023.8 0.0
26/10:15am 5.8 4.1 5.7 99 0.0 NNE 4 7 2 4 1023.7 1023.9 0.0
26/10:00am 5.6 3.8 5.5 99 0.0 N 4 7 2 4 1023.7 1023.9 0.0
26/09:30am 5.4 4.3 5.3 99 0.0 CALM 0 0 0 0 1023.7 1023.9 0.0
26/09:00am 4.5 2.5 4.4 99 0.0 ENE 4 7 2 4 1023.7 1023.9 0.0
26/08:51am 4.5 3.3 4.4 99 0.0 CALM 0 4 0 2 1023.7 1023.9 0.0
26/08:30am 4.5 1.9 4.4 99 0.0 SSW 7 9 4 5 1023.7 1023.9 0.0
26/08:00am 4.4 1.8 4.3 99 0.0 ESE 7 9 4 5 1023.3 1023.6 0.0
26/07:30am 4.3 2.3 4.2 99 0.0 SSE 4 9 2 5 1023.2 1023.5 0.0
26/07:00am 4.5 3.3 4.4 99 0.0 CALM 0 0 0 0 1022.9 1023.2 0.0
26/06:30am 3.9 2.5 3.8 99 0.0 CALM 0 6 0 3 1022.7 1023.0 0.0

Other Formats:

Comma delimited format used in spreadsheet applications
http://www.bom.gov.au/fwo/IDN60801/IDN60801.94926.axf

JavaScript Object Notation format (JSON) in row-major order
http://www.bom.gov.au/fwo/IDN60801/IDN60801.94926.json